Time;durP1;ratioP1;P1;durP2;ratioP2;P2;SDS_P1;SDS_P2;PMS_P1;PMS_P2;Temp;Humidity;BMP_temperature;BMP_pressure;BME280_temperature;BME280_humidity;BME280_pressure;Samples;Min_cycle;Max_cycle;Signal;HPM_P1;HPM_P2
2023/09/13 00:02:13;;;;;;;5.68;1.83;;;;;;;;;;5031688;28;20026;-75
2023/09/13 00:04:39;;;;;;;4.45;2.10;;;;;;;;;;5031331;28;20025;-75
2023/09/13 00:07:05;;;;;;;7.97;2.25;;;;;;;;;;5031334;28;20028;-74
2023/09/13 00:09:31;;;;;;;7.13;2.38;;;;;;;;;;5031135;28;20415;-74
2023/09/13 00:11:57;;;;;;;6.72;1.70;;;;;;;;;;5031497;28;20061;-74
2023/09/13 00:14:23;;;;;;;6.75;1.98;;;;;;;;;;5031278;28;20467;-74
2023/09/13 00:16:50;;;;;;;4.43;1.50;;;;;;;;;;5030890;28;20101;-74
2023/09/13 00:19:16;;;;;;;3.72;1.50;;;;;;;;;;5031513;28;20026;-75
2023/09/13 00:21:42;;;;;;;7.95;2.00;;;;;;;;;;5031305;28;20053;-75
2023/09/13 00:24:09;;;;;;;6.28;1.75;;;;;;;;;;5028687;28;20527;-75
2023/09/13 00:26:35;;;;;;;4.28;1.33;;;;;;;;;;5011462;28;20054;-75
2023/09/13 00:29:01;;;;;;;4.95;0.90;;;;;;;;;;5026468;28;20416;-75
2023/09/13 00:31:27;;;;;;;3.15;1.20;;;;;;;;;;5031321;28;20022;-75
2023/09/13 00:33:53;;;;;;;7.18;1.15;;;;;;;;;;5030892;28;20029;-74
2023/09/13 00:36:19;;;;;;;8.18;1.70;;;;;;;;;;5022401;28;20104;-75
2023/09/13 00:38:45;;;;;;;4.70;1.40;;;;;;;;;;5013880;28;20160;-75
2023/09/13 00:41:11;;;;;;;7.43;1.88;;;;;;;;;;5031245;28;20034;-75
2023/09/13 00:43:37;;;;;;;8.23;1.52;;;;;;;;;;5031760;28;20032;-75
2023/09/13 00:46:04;;;;;;;6.80;1.58;;;;;;;;;;5025945;28;20526;-74
2023/09/13 00:48:31;;;;;;;3.78;1.25;;;;;;;;;;5016642;28;20108;-75
2023/09/13 00:50:58;;;;;;;6.00;1.98;;;;;;;;;;5034885;28;20025;-74
2023/09/13 00:53:25;;;;;;;4.88;1.30;;;;;;;;;;5034443;28;20092;-75
2023/09/13 00:55:52;;;;;;;5.88;1.45;;;;;;;;;;5034301;28;20224;-74
2023/09/13 00:58:18;;;;;;;5.80;1.80;;;;;;;;;;5034787;28;20510;-74
2023/09/13 01:00:45;;;;;;;6.82;2.08;;;;;;;;;;5034466;28;20017;-75
2023/09/13 01:03:11;;;;;;;3.55;1.70;;;;;;;;;;5034055;28;20034;-75
2023/09/13 01:05:37;;;;;;;4.15;1.30;;;;;;;;;;5034371;28;20032;-75
2023/09/13 01:08:03;;;;;;;3.60;1.38;;;;;;;;;;5033934;28;20022;-75
2023/09/13 01:10:30;;;;;;;8.35;1.75;;;;;;;;;;5034360;28;20030;-74
2023/09/13 01:12:56;;;;;;;7.47;1.60;;;;;;;;;;5034236;28;20021;-75
2023/09/13 01:15:23;;;;;;;5.93;1.38;;;;;;;;;;5033905;28;20352;-74
2023/09/13 01:18:02;;;;;;;7.65;2.05;;;;;;;;;;5034665;28;20029;-75
2023/09/13 01:20:48;;;;;;;4.03;1.58;;;;;;;;;;5033782;28;20467;-75
2023/09/13 01:23:26;;;;;;;7.47;2.35;;;;;;;;;;5034483;28;20406;-75
2023/09/13 01:26:01;;;;;;;6.68;1.75;;;;;;;;;;5031182;28;20652;-75
2023/09/13 01:28:27;;;;;;;4.53;1.67;;;;;;;;;;5033570;28;20069;-75
2023/09/13 01:30:54;;;;;;;6.38;1.35;;;;;;;;;;5033470;28;20515;-75
2023/09/13 01:33:20;;;;;;;8.20;1.60;;;;;;;;;;5033788;28;20388;-74
2023/09/13 01:35:46;;;;;;;5.65;1.92;;;;;;;;;;5033699;28;20034;-74
2023/09/13 01:38:12;;;;;;;4.57;1.45;;;;;;;;;;5033715;28;20029;-75
2023/09/13 01:40:40;;;;;;;5.38;1.60;;;;;;;;;;5033626;28;20432;-75
2023/09/13 01:43:06;;;;;;;6.03;1.20;;;;;;;;;;5033542;28;20030;-75
2023/09/13 01:45:34;;;;;;;5.82;1.75;;;;;;;;;;5030600;28;20029;-75
2023/09/13 01:48:02;;;;;;;6.28;1.75;;;;;;;;;;5013924;28;20068;-75
2023/09/13 01:50:28;;;;;;;4.55;1.67;;;;;;;;;;5013595;28;20030;-75
2023/09/13 01:52:54;;;;;;;5.32;1.50;;;;;;;;;;5023671;28;20021;-74
2023/09/13 01:55:20;;;;;;;5.38;1.38;;;;;;;;;;5032576;28;20349;-74
2023/09/13 01:57:46;;;;;;;9.45;1.70;;;;;;;;;;5033543;28;20068;-75
2023/09/13 02:00:12;;;;;;;7.05;1.80;;;;;;;;;;5033202;28;20030;-74
2023/09/13 02:02:38;;;;;;;6.97;1.65;;;;;;;;;;5033552;28;20057;-74
2023/09/13 02:05:05;;;;;;;6.20;1.73;;;;;;;;;;5033171;28;20021;-74
2023/09/13 02:07:31;;;;;;;6.90;1.50;;;;;;;;;;5033253;28;20032;-75
2023/09/13 02:09:57;;;;;;;5.90;1.27;;;;;;;;;;5033151;28;20100;-75
2023/09/13 02:12:23;;;;;;;3.53;1.15;;;;;;;;;;5032785;28;20373;-75
2023/09/13 02:14:49;;;;;;;4.10;1.15;;;;;;;;;;5033537;28;20029;-74
2023/09/13 02:17:15;;;;;;;5.03;1.45;;;;;;;;;;5032777;28;20026;-74
2023/09/13 02:19:41;;;;;;;4.53;1.33;;;;;;;;;;5032967;28;20207;-75
2023/09/13 02:22:13;;;;;;;2.95;1.27;;;;;;;;;;5033080;28;20026;-76
2023/09/13 02:24:39;;;;;;;1.98;0.77;;;;;;;;;;5032587;28;20467;-76
2023/09/13 02:27:05;;;;;;;5.00;1.65;;;;;;;;;;5032707;28;20384;-76
2023/09/13 02:29:31;;;;;;;2.90;1.25;;;;;;;;;;5032761;28;20053;-76
2023/09/13 02:31:57;;;;;;;2.08;1.08;;;;;;;;;;5032803;28;20036;-76
2023/09/13 02:34:24;;;;;;;1.80;1.10;;;;;;;;;;5032586;28;20443;-76
2023/09/13 02:36:50;;;;;;;5.18;1.48;;;;;;;;;;5032753;28;20014;-76
2023/09/13 02:39:35;;;;;;;2.85;0.98;;;;;;;;;;5032700;28;20556;-76
2023/09/13 02:42:05;;;;;;;1.35;1.02;;;;;;;;;;5032273;28;20025;-76
2023/09/13 02:44:31;;;;;;;4.13;1.40;;;;;;;;;;5032659;28;20026;-76
2023/09/13 02:46:57;;;;;;;6.07;1.25;;;;;;;;;;5032804;28;20032;-76
2023/09/13 02:49:24;;;;;;;7.60;1.98;;;;;;;;;;5031936;28;20383;-76
2023/09/13 02:51:51;;;;;;;5.28;1.05;;;;;;;;;;5032769;28;20026;-76
2023/09/13 02:54:17;;;;;;;3.33;1.58;;;;;;;;;;5031950;28;20023;-76
2023/09/13 02:56:43;;;;;;;4.32;1.70;;;;;;;;;;5032307;28;20017;-76
2023/09/13 02:59:09;;;;;;;5.93;2.17;;;;;;;;;;5032207;28;20663;-76
2023/09/13 03:01:35;;;;;;;2.88;1.33;;;;;;;;;;5032156;28;20100;-76
2023/09/13 03:04:02;;;;;;;4.32;1.52;;;;;;;;;;5032079;28;20029;-76
2023/09/13 03:06:29;;;;;;;5.13;1.60;;;;;;;;;;5031972;28;20414;-76
2023/09/13 03:08:55;;;;;;;4.32;1.30;;;;;;;;;;5032354;28;20022;-76
2023/09/13 03:11:21;;;;;;;5.75;1.35;;;;;;;;;;5024337;28;20080;-76
2023/09/13 03:13:47;;;;;;;3.00;1.38;;;;;;;;;;5012201;28;20029;-76
2023/09/13 03:16:20;;;;;;;4.32;1.65;;;;;;;;;;5012038;28;20129;-76
2023/09/13 03:18:48;;;;;;;1.70;1.05;;;;;;;;;;5014193;28;20108;-76
2023/09/13 03:21:15;;;;;;;2.75;1.10;;;;;;;;;;5032022;28;20053;-76
2023/09/13 03:23:42;;;;;;;4.63;1.50;;;;;;;;;;5032051;28;20025;-76
2023/09/13 03:26:14;;;;;;;2.25;1.27;;;;;;;;;;5031989;28;20021;-76
2023/09/13 03:28:40;;;;;;;3.33;0.85;;;;;;;;;;5031724;28;20108;-76
2023/09/13 03:31:12;;;;;;;4.13;1.30;;;;;;;;;;5031204;28;20049;-76
2023/09/13 03:33:39;;;;;;;2.08;1.23;;;;;;;;;;5031762;28;20113;-76
2023/09/13 03:36:06;;;;;;;3.58;1.65;;;;;;;;;;5031521;28;20479;-76
2023/09/13 03:38:32;;;;;;;1.45;0.77;;;;;;;;;;5031449;28;20108;-76
2023/09/13 03:40:58;;;;;;;3.67;0.80;;;;;;;;;;5031823;28;20100;-77
2023/09/13 03:43:24;;;;;;;4.20;0.95;;;;;;;;;;5031483;28;20036;-76
2023/09/13 03:45:50;;;;;;;4.13;0.80;;;;;;;;;;5031312;28;20034;-76
2023/09/13 03:48:16;;;;;;;3.70;1.35;;;;;;;;;;5027292;28;20042;-76
2023/09/13 03:50:42;;;;;;;6.43;1.23;;;;;;;;;;5011736;28;20030;-76
2023/09/13 03:53:08;;;;;;;2.78;1.02;;;;;;;;;;5011835;28;20412;-76
2023/09/13 03:55:34;;;;;;;5.43;1.00;;;;;;;;;;5011863;28;20026;-76
2023/09/13 03:58:00;;;;;;;4.38;1.05;;;;;;;;;;5011789;28;20057;-76
2023/09/13 04:00:26;;;;;;;2.50;1.10;;;;;;;;;;5022909;28;20072;-76
2023/09/13 04:02:52;;;;;;;1.83;0.63;;;;;;;;;;5031550;28;20109;-76
2023/09/13 04:05:18;;;;;;;3.08;0.90;;;;;;;;;;5031094;28;20053;-76
2023/09/13 04:07:46;;;;;;;4.90;1.33;;;;;;;;;;5031381;28;20064;-76
2023/09/13 04:10:12;;;;;;;3.88;0.70;;;;;;;;;;5031717;28;20032;-76
2023/09/13 04:12:38;;;;;;;6.75;1.23;;;;;;;;;;5031517;28;20026;-76
2023/09/13 04:15:05;;;;;;;4.38;1.33;;;;;;;;;;5031243;28;20122;-76
2023/09/13 04:17:31;;;;;;;3.05;0.95;;;;;;;;;;5031222;28;20124;-76
2023/09/13 04:19:57;;;;;;;4.95;1.33;;;;;;;;;;5033985;28;20507;-76
2023/09/13 04:22:23;;;;;;;6.22;1.20;;;;;;;;;;5035267;28;20026;-76
2023/09/13 04:24:49;;;;;;;5.85;1.20;;;;;;;;;;5035005;28;20389;-76
2023/09/13 04:27:21;;;;;;;4.45;1.00;;;;;;;;;;5021726;28;20037;-76
2023/09/13 04:29:47;;;;;;;5.25;1.05;;;;;;;;;;5034608;28;20102;-76
2023/09/13 04:32:13;;;;;;;4.28;1.33;;;;;;;;;;5034792;28;20025;-77
2023/09/13 04:34:39;;;;;;;2.38;1.13;;;;;;;;;;5035126;28;20453;-76
2023/09/13 04:37:05;;;;;;;5.25;1.42;;;;;;;;;;5034773;28;20032;-76
2023/09/13 04:39:32;;;;;;;9.27;1.42;;;;;;;;;;5034935;28;20048;-76
2023/09/13 04:41:58;;;;;;;5.63;1.88;;;;;;;;;;5034638;28;20044;-76
2023/09/13 04:44:25;;;;;;;5.13;1.70;;;;;;;;;;5034880;28;20689;-76
2023/09/13 04:46:51;;;;;;;6.65;1.42;;;;;;;;;;5034709;28;20048;-76
2023/09/13 04:49:17;;;;;;;4.10;1.00;;;;;;;;;;5034522;28;20410;-76
2023/09/13 04:51:43;;;;;;;4.75;1.88;;;;;;;;;;5034743;28;20033;-76
2023/09/13 04:54:09;;;;;;;2.42;1.23;;;;;;;;;;5034903;28;20064;-76
2023/09/13 04:56:35;;;;;;;7.55;1.83;;;;;;;;;;5033940;28;20131;-76
2023/09/13 04:59:01;;;;;;;5.70;2.00;;;;;;;;;;5034543;28;20029;-77
2023/09/13 05:01:27;;;;;;;5.70;1.70;;;;;;;;;;5034735;28;20024;-77
2023/09/13 05:03:53;;;;;;;4.05;1.02;;;;;;;;;;5022249;28;20080;-77
2023/09/13 05:06:19;;;;;;;3.33;1.85;;;;;;;;;;5014688;28;20026;-77
2023/09/13 05:08:45;;;;;;;4.22;1.88;;;;;;;;;;5027905;28;20033;-77
2023/09/13 05:11:11;;;;;;;3.63;1.52;;;;;;;;;;5027612;28;20026;-77
2023/09/13 05:13:38;;;;;;;4.40;2.08;;;;;;;;;;5014520;28;20057;-77
2023/09/13 05:16:05;;;;;;;8.02;1.60;;;;;;;;;;5014328;28;20029;-77
2023/09/13 05:18:31;;;;;;;4.25;1.48;;;;;;;;;;5014367;28;20022;-77
2023/09/13 05:20:57;;;;;;;4.13;1.45;;;;;;;;;;5021461;28;20022;-77
2023/09/13 05:23:23;;;;;;;3.60;1.48;;;;;;;;;;5034307;28;20025;-77
2023/09/13 05:25:49;;;;;;;6.05;1.77;;;;;;;;;;5033875;28;20037;-76
2023/09/13 05:28:16;;;;;;;8.20;1.92;;;;;;;;;;5033907;28;20083;-77
2023/09/13 05:30:46;;;;;;;2.17;1.10;;;;;;;;;;5032358;28;20050;-76
2023/09/13 05:33:12;;;;;;;4.55;1.63;;;;;;;;;;5033810;28;20037;-77
2023/09/13 05:35:38;;;;;;;2.60;1.08;;;;;;;;;;5033701;28;20032;-76
2023/09/13 05:38:04;;;;;;;4.25;1.75;;;;;;;;;;5033507;28;20033;-76
2023/09/13 05:40:30;;;;;;;4.30;1.25;;;;;;;;;;5033958;28;20357;-77
2023/09/13 05:42:57;;;;;;;6.55;1.95;;;;;;;;;;5019637;28;20370;-76
2023/09/13 05:45:23;;;;;;;5.10;1.90;;;;;;;;;;5021053;28;20058;-76
2023/09/13 05:47:49;;;;;;;5.28;1.42;;;;;;;;;;5033853;28;20022;-76
2023/09/13 05:50:15;;;;;;;5.60;1.30;;;;;;;;;;5033572;28;20018;-77
2023/09/13 05:52:41;;;;;;;4.70;1.45;;;;;;;;;;5033693;28;20092;-77
2023/09/13 05:55:08;;;;;;;3.63;1.33;;;;;;;;;;5033478;28;20096;-77
2023/09/13 05:57:34;;;;;;;4.00;1.15;;;;;;;;;;5033290;28;20021;-76
2023/09/13 06:00:00;;;;;;;4.20;1.17;;;;;;;;;;5033408;28;20029;-77
2023/09/13 06:02:26;;;;;;;2.55;1.25;;;;;;;;;;5033349;28;20375;-77
2023/09/13 06:04:52;;;;;;;6.40;1.20;;;;;;;;;;5033228;28;20036;-76
2023/09/13 06:07:18;;;;;;;3.92;1.30;;;;;;;;;;5033007;28;20029;-76
2023/09/13 06:09:44;;;;;;;3.63;1.25;;;;;;;;;;5033397;28;20041;-76
2023/09/13 06:12:10;;;;;;;2.28;1.00;;;;;;;;;;5032789;28;20479;-76
2023/09/13 06:14:36;;;;;;;2.92;0.70;;;;;;;;;;5033393;28;20098;-76
2023/09/13 06:17:02;;;;;;;5.07;1.23;;;;;;;;;;5032805;28;20029;-76
2023/09/13 06:19:28;;;;;;;5.18;0.90;;;;;;;;;;5033021;28;20040;-76
2023/09/13 06:21:55;;;;;;;1.90;1.10;;;;;;;;;;5033033;28;20030;-76
2023/09/13 06:24:21;;;;;;;1.70;0.93;;;;;;;;;;5033226;28;20411;-77
2023/09/13 06:26:47;;;;;;;2.28;0.60;;;;;;;;;;5032896;28;20495;-76
2023/09/13 06:29:13;;;;;;;3.13;1.00;;;;;;;;;;5032506;28;20085;-76
2023/09/13 06:31:39;;;;;;;1.52;0.65;;;;;;;;;;5032758;28;20511;-76
2023/09/13 06:34:05;;;;;;;3.53;1.30;;;;;;;;;;5033060;28;20025;-76
2023/09/13 06:36:31;;;;;;;2.22;1.02;;;;;;;;;;5032543;28;20456;-76
2023/09/13 06:38:57;;;;;;;5.07;1.17;;;;;;;;;;5014567;28;20030;-77
2023/09/13 06:41:24;;;;;;;2.13;0.82;;;;;;;;;;5032442;28;20466;-76
2023/09/13 06:43:50;;;;;;;3.55;0.75;;;;;;;;;;5032710;28;20022;-77
2023/09/13 06:46:16;;;;;;;4.60;0.95;;;;;;;;;;5032400;28;20456;-76
2023/09/13 06:48:43;;;;;;;7.40;1.20;;;;;;;;;;5032568;28;20099;-76
2023/09/13 06:51:09;;;;;;;2.00;0.80;;;;;;;;;;5032478;28;20040;-77
2023/09/13 06:53:35;;;;;;;3.95;0.90;;;;;;;;;;5032287;28;20551;-77
2023/09/13 06:56:01;;;;;;;4.90;1.10;;;;;;;;;;5032598;28;20364;-76
2023/09/13 06:58:27;;;;;;;2.58;0.90;;;;;;;;;;5032227;28;20079;-77
2023/09/13 07:00:53;;;;;;;3.22;0.73;;;;;;;;;;5032051;28;20036;-77
2023/09/13 07:03:19;;;;;;;4.50;0.63;;;;;;;;;;5032197;28;20027;-77
2023/09/13 07:05:45;;;;;;;5.13;1.25;;;;;;;;;;5032244;28;20407;-77
2023/09/13 07:08:11;;;;;;;3.60;1.05;;;;;;;;;;5032222;28;20033;-77
2023/09/13 07:10:38;;;;;;;4.68;0.88;;;;;;;;;;5031863;28;20528;-77
2023/09/13 07:13:05;;;;;;;3.25;0.60;;;;;;;;;;5014263;28;20029;-76
2023/09/13 07:15:31;;;;;;;3.40;0.80;;;;;;;;;;5032163;28;20111;-76
2023/09/13 07:17:57;;;;;;;3.08;0.68;;;;;;;;;;5031884;28;20030;-77
2023/09/13 07:20:23;;;;;;;2.00;0.50;;;;;;;;;;5030880;28;20025;-76
2023/09/13 07:22:50;;;;;;;3.40;0.80;;;;;;;;;;5031818;28;20025;-77
2023/09/13 07:25:16;;;;;;;4.68;0.70;;;;;;;;;;5031823;28;20372;-77
2023/09/13 07:27:44;;;;;;;3.38;0.80;;;;;;;;;;5031820;28;20084;-77
2023/09/13 07:30:10;;;;;;;1.38;0.60;;;;;;;;;;5030729;28;20045;-77
2023/09/13 07:32:37;;;;;;;2.20;0.80;;;;;;;;;;5021064;28;20632;-76
2023/09/13 07:35:04;;;;;;;5.45;1.08;;;;;;;;;;5031550;28;20032;-76
2023/09/13 07:37:30;;;;;;;3.67;0.63;;;;;;;;;;5031475;28;20108;-77
2023/09/13 07:39:57;;;;;;;3.15;0.68;;;;;;;;;;5031902;28;20022;-77
2023/09/13 07:42:23;;;;;;;5.55;0.90;;;;;;;;;;5032052;28;20028;-77
2023/09/13 07:44:49;;;;;;;9.48;1.30;;;;;;;;;;5031661;28;20018;-77
2023/09/13 07:47:15;;;;;;;6.90;1.00;;;;;;;;;;5031697;28;20025;-77
2023/09/13 07:49:41;;;;;;;8.65;1.27;;;;;;;;;;5031118;28;20040;-77
2023/09/13 07:52:07;;;;;;;4.80;1.05;;;;;;;;;;5031472;28;20418;-77
2023/09/13 07:54:33;;;;;;;7.15;1.60;;;;;;;;;;5030640;28;20036;-76
2023/09/13 07:56:59;;;;;;;4.57;1.08;;;;;;;;;;5031290;28;20022;-76
2023/09/13 07:59:25;;;;;;;4.50;1.75;;;;;;;;;;5031480;28;20037;-76
2023/09/13 08:01:51;;;;;;;7.22;1.58;;;;;;;;;;5031637;28;20026;-76
2023/09/13 08:04:18;;;;;;;3.95;1.10;;;;;;;;;;5031646;28;20029;-76
2023/09/13 08:06:44;;;;;;;7.25;2.80;;;;;;;;;;5031530;28;20026;-76
2023/09/13 08:09:14;;;;;;;4.55;2.03;;;;;;;;;;5030991;28;20679;-76
2023/09/13 08:11:40;;;;;;;5.95;2.33;;;;;;;;;;5020926;28;20069;-76
2023/09/13 08:14:06;;;;;;;2.38;1.63;;;;;;;;;;5011550;28;20072;-76
2023/09/13 08:16:32;;;;;;;5.72;2.03;;;;;;;;;;5011482;28;20026;-77
2023/09/13 08:18:58;;;;;;;8.25;2.25;;;;;;;;;;5011550;28;20406;-76
2023/09/13 08:21:24;;;;;;;8.93;2.67;;;;;;;;;;5026723;28;20029;-76
2023/09/13 08:23:50;;;;;;;4.80;2.15;;;;;;;;;;5031214;28;20064;-76
2023/09/13 08:26:16;;;;;;;6.20;2.53;;;;;;;;;;5015699;28;20026;-76
2023/09/13 08:28:42;;;;;;;7.28;2.53;;;;;;;;;;5028742;28;20041;-76
2023/09/13 08:31:10;;;;;;;6.45;1.95;;;;;;;;;;5030946;28;20045;-76
2023/09/13 08:33:36;;;;;;;5.55;2.47;;;;;;;;;;5031455;28;20455;-76
2023/09/13 08:36:02;;;;;;;6.30;2.72;;;;;;;;;;5031143;28;20025;-76
2023/09/13 08:38:29;;;;;;;4.80;1.85;;;;;;;;;;5031161;28;20045;-76
2023/09/13 08:40:55;;;;;;;5.68;2.53;;;;;;;;;;5020519;28;20030;-76
2023/09/13 08:43:22;;;;;;;4.93;1.63;;;;;;;;;;5028855;28;20636;-76
2023/09/13 08:45:48;;;;;;;8.35;1.70;;;;;;;;;;5030934;28;20025;-76
2023/09/13 08:48:15;;;;;;;6.32;1.85;;;;;;;;;;5030090;28;20112;-76
2023/09/13 08:50:41;;;;;;;4.18;1.75;;;;;;;;;;5029394;28;20028;-76
2023/09/13 08:53:10;;;;;;;3.75;1.40;;;;;;;;;;5030757;28;20034;-76
2023/09/13 08:55:37;;;;;;;5.00;1.90;;;;;;;;;;5031038;28;20022;-76
2023/09/13 08:58:03;;;;;;;5.05;1.88;;;;;;;;;;5030891;28;20053;-76
2023/09/13 09:00:31;;;;;;;6.20;1.80;;;;;;;;;;5030834;28;20029;-76
2023/09/13 09:02:59;;;;;;;4.68;2.00;;;;;;;;;;5031066;28;20025;-76
2023/09/13 09:05:27;;;;;;;5.25;1.40;;;;;;;;;;5014834;28;20026;-76
2023/09/13 09:07:54;;;;;;;4.93;2.33;;;;;;;;;;5034628;28;20030;-76
2023/09/13 09:10:20;;;;;;;3.30;1.90;;;;;;;;;;5034372;28;20071;-76
2023/09/13 09:12:48;;;;;;;7.75;2.00;;;;;;;;;;5034184;28;20060;-76
2023/09/13 09:15:14;;;;;;;6.55;1.80;;;;;;;;;;5034371;28;20103;-76
2023/09/13 09:17:41;;;;;;;3.75;1.63;;;;;;;;;;5034337;28;20454;-76
2023/09/13 09:20:08;;;;;;;3.42;1.83;;;;;;;;;;5034235;28;20025;-76
2023/09/13 09:22:34;;;;;;;6.85;2.88;;;;;;;;;;5034040;28;20030;-77
2023/09/13 09:25:00;;;;;;;6.25;1.95;;;;;;;;;;5034247;28;20029;-77
2023/09/13 09:27:26;;;;;;;5.53;2.38;;;;;;;;;;5033825;28;20029;-77
2023/09/13 09:30:03;;;;;;;2.15;1.33;;;;;;;;;;5033364;28;20053;-77
2023/09/13 09:32:29;;;;;;;3.83;1.42;;;;;;;;;;5021228;28;20028;-76
2023/09/13 09:34:59;;;;;;;4.47;1.73;;;;;;;;;;5034053;28;20380;-76
2023/09/13 09:37:35;;;;;;;4.75;2.45;;;;;;;;;;5033898;28;20463;-77
2023/09/13 09:40:01;;;;;;;2.58;0.80;;;;;;;;;;5033446;28;20029;-77
2023/09/13 09:42:31;;;;;;;4.88;1.35;;;;;;;;;;5033857;28;20025;-76
2023/09/13 09:44:57;;;;;;;4.63;1.85;;;;;;;;;;5033349;28;20025;-76
2023/09/13 09:47:23;;;;;;;4.93;1.85;;;;;;;;;;5033415;28;20395;-77
2023/09/13 09:49:52;;;;;;;3.95;2.30;;;;;;;;;;5033271;28;20678;-76
2023/09/13 09:52:19;;;;;;;4.93;1.75;;;;;;;;;;5033728;28;20101;-76
2023/09/13 09:54:49;;;;;;;4.03;1.92;;;;;;;;;;5033311;28;20086;-76
2023/09/13 09:57:22;;;;;;;3.20;1.88;;;;;;;;;;5033388;28;20660;-76
2023/09/13 09:59:49;;;;;;;5.57;2.22;;;;;;;;;;5033642;28;20377;-76
2023/09/13 10:02:15;;;;;;;4.82;1.67;;;;;;;;;;5032938;28;20013;-76
2023/09/13 10:04:45;;;;;;;2.95;2.10;;;;;;;;;;5009507;28;20033;-76
2023/09/13 10:07:11;;;;;;;3.63;1.95;;;;;;;;;;5013444;28;20025;-76
2023/09/13 10:09:40;;;;;;;6.20;2.50;;;;;;;;;;5013302;28;20026;-76
2023/09/13 10:12:07;;;;;;;5.60;2.72;;;;;;;;;;5027127;28;20029;-76
2023/09/13 10:14:34;;;;;;;4.05;2.25;;;;;;;;;;5033049;28;20029;-76
2023/09/13 10:17:03;;;;;;;5.50;2.92;;;;;;;;;;5032410;28;20021;-76
2023/09/13 10:19:30;;;;;;;5.75;2.72;;;;;;;;;;5033112;28;20755;-76
2023/09/13 10:21:56;;;;;;;5.03;2.50;;;;;;;;;;5030404;28;20372;-76
2023/09/13 10:24:24;;;;;;;3.72;1.80;;;;;;;;;;5013382;28;20061;-75
2023/09/13 10:26:53;;;;;;;4.07;1.60;;;;;;;;;;5013139;28;20022;-75
2023/09/13 10:29:19;;;;;;;5.25;1.83;;;;;;;;;;5012495;28;20089;-76
2023/09/13 10:31:49;;;;;;;5.82;1.80;;;;;;;;;;5013417;28;20049;-76
2023/09/13 10:34:18;;;;;;;4.07;1.83;;;;;;;;;;5012604;28;20032;-75
2023/09/13 10:36:48;;;;;;;6.70;2.67;;;;;;;;;;5029610;28;20486;-76
2023/09/13 10:39:14;;;;;;;4.90;1.65;;;;;;;;;;5032276;28;20029;-75
2023/09/13 10:41:43;;;;;;;3.33;1.20;;;;;;;;;;5032581;28;20022;-75
2023/09/13 10:44:09;;;;;;;3.90;1.38;;;;;;;;;;5033053;28;20017;-75
2023/09/13 10:46:35;;;;;;;3.50;1.23;;;;;;;;;;5035314;28;20100;-75
2023/09/13 10:49:02;;;;;;;2.60;1.20;;;;;;;;;;5032489;28;20430;-75
2023/09/13 10:51:31;;;;;;;4.97;1.70;;;;;;;;;;5032314;28;20464;-76
2023/09/13 10:53:58;;;;;;;2.97;1.40;;;;;;;;;;5032457;28;20070;-75
2023/09/13 10:56:24;;;;;;;3.30;1.20;;;;;;;;;;5032218;28;20026;-76
2023/09/13 10:58:50;;;;;;;6.68;1.52;;;;;;;;;;5032072;28;20079;-76
2023/09/13 11:01:17;;;;;;;5.40;1.45;;;;;;;;;;5032266;28;20029;-76
2023/09/13 11:03:43;;;;;;;3.35;1.08;;;;;;;;;;5032195;28;20036;-76
2023/09/13 11:06:10;;;;;;;4.10;0.90;;;;;;;;;;5027144;28;20435;-76
2023/09/13 11:08:36;;;;;;;5.72;1.70;;;;;;;;;;5012266;28;20025;-75
2023/09/13 11:11:08;;;;;;;2.92;0.88;;;;;;;;;;5011767;28;20018;-76
2023/09/13 11:13:35;;;;;;;5.72;1.10;;;;;;;;;;5024426;28;20088;-75
2023/09/13 11:16:03;;;;;;;2.92;1.10;;;;;;;;;;5031902;28;20534;-75
2023/09/13 11:18:30;;;;;;;5.55;1.20;;;;;;;;;;5031910;28;20025;-76
2023/09/13 11:20:59;;;;;;;4.30;1.33;;;;;;;;;;5012115;28;20034;-76
2023/09/13 11:23:25;;;;;;;2.55;1.10;;;;;;;;;;5012104;28;20026;-76
2023/09/13 11:25:52;;;;;;;3.10;0.70;;;;;;;;;;5012270;28;20495;-76
2023/09/13 11:28:28;;;;;;;2.95;0.90;;;;;;;;;;5010997;28;20030;-76
2023/09/13 11:30:59;;;;;;;1.05;0.60;;;;;;;;;;5014863;28;20096;-75
2023/09/13 11:33:28;;;;;;;12.73;1.20;;;;;;;;;;5011780;28;20376;-75
2023/09/13 11:35:56;;;;;;;4.80;1.17;;;;;;;;;;5022521;28;20025;-75
2023/09/13 11:38:25;;;;;;;5.93;1.50;;;;;;;;;;5032443;28;20025;-76
2023/09/13 11:40:56;;;;;;;6.25;1.35;;;;;;;;;;5021957;28;20476;-75
2023/09/13 11:43:27;;;;;;;3.05;1.27;;;;;;;;;;5011831;28;20029;-76
2023/09/13 11:45:57;;;;;;;4.63;1.10;;;;;;;;;;5011876;28;20030;-76
2023/09/13 11:48:32;;;;;;;2.47;1.00;;;;;;;;;;5030922;28;20033;-76
2023/09/13 11:51:09;;;;;;;4.70;1.55;;;;;;;;;;5032077;28;20021;-76
2023/09/13 11:53:35;;;;;;;4.07;1.30;;;;;;;;;;5023807;28;20025;-76
2023/09/13 11:56:02;;;;;;;3.55;1.30;;;;;;;;;;5011803;28;20076;-76
2023/09/13 11:58:32;;;;;;;5.18;1.95;;;;;;;;;;5011925;28;20483;-76
2023/09/13 12:00:59;;;;;;;2.35;1.08;;;;;;;;;;5011612;28;20120;-76
2023/09/13 12:03:27;;;;;;;2.70;1.00;;;;;;;;;;5020848;28;20056;-76
2023/09/13 12:05:53;;;;;;;4.45;1.40;;;;;;;;;;5032118;28;20682;-76
2023/09/13 12:08:19;;;;;;;5.38;1.60;;;;;;;;;;5031168;28;20535;-76
2023/09/13 12:10:45;;;;;;;3.65;1.00;;;;;;;;;;5015258;28;20028;-76
2023/09/13 12:13:11;;;;;;;5.53;1.70;;;;;;;;;;5020792;28;20029;-76
2023/09/13 12:15:57;;;;;;;7.05;1.65;;;;;;;;;;5031201;28;20026;-76
2023/09/13 12:18:23;;;;;;;6.22;1.27;;;;;;;;;;5031336;28;20021;-76
2023/09/13 12:20:49;;;;;;;3.10;1.10;;;;;;;;;;5031278;28;20037;-75
2023/09/13 12:23:16;;;;;;;4.50;1.00;;;;;;;;;;5031046;28;20030;-75
2023/09/13 12:25:43;;;;;;;8.20;1.33;;;;;;;;;;5031238;28;20518;-76
2023/09/13 12:28:09;;;;;;;3.35;1.33;;;;;;;;;;5031112;28;20080;-76
2023/09/13 12:30:35;;;;;;;3.58;1.05;;;;;;;;;;5030879;28;20483;-75
2023/09/13 12:33:03;;;;;;;3.45;1.20;;;;;;;;;;5031304;28;20092;-76
2023/09/13 12:35:31;;;;;;;4.15;1.00;;;;;;;;;;5018462;28;20029;-75
2023/09/13 12:38:00;;;;;;;1.85;1.00;;;;;;;;;;5031688;28;20029;-75
2023/09/13 12:40:29;;;;;;;3.05;1.27;;;;;;;;;;5033021;28;20340;-75
2023/09/13 12:42:58;;;;;;;5.33;0.90;;;;;;;;;;5034778;28;20486;-76
2023/09/13 12:45:28;;;;;;;6.55;0.90;;;;;;;;;;5034430;28;20025;-75
2023/09/13 12:47:55;;;;;;;3.17;0.77;;;;;;;;;;5034787;28;20059;-75
2023/09/13 12:50:21;;;;;;;1.83;0.68;;;;;;;;;;5034796;28;20040;-75
2023/09/13 12:52:51;;;;;;;2.70;0.55;;;;;;;;;;5034668;28;20030;-75
2023/09/13 12:55:17;;;;;;;3.43;1.07;;;;;;;;;;5035285;28;20041;-75
2023/09/13 12:57:43;;;;;;;2.63;0.75;;;;;;;;;;5034436;28;20335;-75
2023/09/13 13:00:12;;;;;;;3.72;1.00;;;;;;;;;;5034527;28;20503;-75
2023/09/13 13:02:39;;;;;;;3.53;0.80;;;;;;;;;;5034559;28;20025;-75
2023/09/13 13:05:05;;;;;;;4.45;0.60;;;;;;;;;;5034189;28;20356;-75
2023/09/13 13:07:33;;;;;;;3.03;1.00;;;;;;;;;;5034230;28;20036;-75
2023/09/13 13:10:03;;;;;;;3.65;1.23;;;;;;;;;;5034180;28;20025;-75
2023/09/13 13:12:30;;;;;;;2.78;0.65;;;;;;;;;;5034074;28;20033;-75
2023/09/13 13:14:56;;;;;;;2.05;0.90;;;;;;;;;;5029221;28;20084;-75
2023/09/13 13:17:23;;;;;;;3.15;0.73;;;;;;;;;;5014320;28;20018;-75
2023/09/13 13:19:50;;;;;;;6.35;1.10;;;;;;;;;;5014332;28;20033;-75
2023/09/13 13:22:17;;;;;;;5.72;0.88;;;;;;;;;;5014534;28;20022;-75
2023/09/13 13:24:46;;;;;;;4.13;0.90;;;;;;;;;;5013888;28;20375;-75
2023/09/13 13:27:12;;;;;;;4.47;1.15;;;;;;;;;;5014330;28;20034;-75
2023/09/13 13:29:39;;;;;;;3.35;1.10;;;;;;;;;;5013900;28;20057;-75
2023/09/13 13:32:05;;;;;;;3.63;1.25;;;;;;;;;;5018460;28;20029;-75
2023/09/13 13:34:31;;;;;;;5.57;1.10;;;;;;;;;;5033952;28;20024;-75
2023/09/13 13:36:57;;;;;;;3.67;0.85;;;;;;;;;;5033480;28;20060;-75
2023/09/13 13:39:24;;;;;;;5.55;1.05;;;;;;;;;;5034114;28;20033;-75
2023/09/13 13:41:50;;;;;;;2.20;0.93;;;;;;;;;;5033758;28;20036;-75
2023/09/13 13:44:17;;;;;;;3.65;1.15;;;;;;;;;;5021899;28;20026;-75
2023/09/13 13:46:43;;;;;;;4.63;1.02;;;;;;;;;;5014152;28;20052;-75
2023/09/13 13:49:17;;;;;;;3.33;1.00;;;;;;;;;;5013536;28;20030;-75
2023/09/13 13:51:45;;;;;;;7.28;0.90;;;;;;;;;;5013269;28;20037;-75
2023/09/13 13:54:11;;;;;;;3.85;1.02;;;;;;;;;;5013539;28;20404;-75
2023/09/13 13:56:40;;;;;;;2.65;1.00;;;;;;;;;;5013626;28;20030;-75
2023/09/13 13:59:08;;;;;;;2.50;0.88;;;;;;;;;;5013944;28;20018;-75
2023/09/13 14:01:34;;;;;;;2.63;0.98;;;;;;;;;;5020684;28;20017;-75
2023/09/13 14:04:00;;;;;;;5.30;1.50;;;;;;;;;;5033147;28;20061;-75
2023/09/13 14:06:26;;;;;;;6.50;1.10;;;;;;;;;;5033454;28;20056;-75
2023/09/13 14:08:52;;;;;;;4.32;1.00;;;;;;;;;;5033002;28;20026;-75
2023/09/13 14:11:26;;;;;;;4.93;0.82;;;;;;;;;;5032763;28;20131;-75
2023/09/13 14:13:52;;;;;;;3.50;0.95;;;;;;;;;;5034212;28;20022;-76
2023/09/13 14:16:18;;;;;;;2.90;0.88;;;;;;;;;;5033084;28;20032;-76
2023/09/13 14:18:44;;;;;;;2.50;1.05;;;;;;;;;;5017411;28;20060;-76
2023/09/13 14:21:10;;;;;;;5.30;1.00;;;;;;;;;;5013091;28;20025;-76
2023/09/13 14:23:37;;;;;;;5.45;1.17;;;;;;;;;;5013233;28;20034;-76
2023/09/13 14:26:03;;;;;;;3.72;0.85;;;;;;;;;;5013221;28;20029;-76
2023/09/13 14:28:31;;;;;;;3.47;0.95;;;;;;;;;;5032445;28;20034;-76
2023/09/13 14:30:58;;;;;;;4.90;1.10;;;;;;;;;;5033009;28;20050;-76
2023/09/13 14:33:25;;;;;;;3.10;1.05;;;;;;;;;;5032759;28;20025;-76
2023/09/13 14:35:52;;;;;;;6.72;1.10;;;;;;;;;;5032818;28;20026;-76
2023/09/13 14:38:20;;;;;;;5.68;1.20;;;;;;;;;;5032686;28;20013;-76
2023/09/13 14:40:46;;;;;;;6.95;0.90;;;;;;;;;;5032713;28;20026;-76
2023/09/13 14:43:12;;;;;;;3.80;1.10;;;;;;;;;;5032596;28;20105;-76